sensor_id;sensor_type;location;lat;lon;timestamp;P1;durP1;ratioP1;P2;durP2;ratioP2
73113;SDS011;61301;51.956;5.876;2024-01-30T00:02:15;10.65;;;6.03;;
73113;SDS011;61301;51.956;5.876;2024-01-30T00:04:41;9.55;;;6.78;;
73113;SDS011;61301;51.956;5.876;2024-01-30T00:07:07;8.77;;;6.15;;
73113;SDS011;61301;51.956;5.876;2024-01-30T00:09:33;7.20;;;5.45;;
73113;SDS011;61301;51.956;5.876;2024-01-30T00:11:59;9.80;;;6.18;;
73113;SDS011;61301;51.956;5.876;2024-01-30T00:14:25;7.85;;;6.05;;
73113;SDS011;61301;51.956;5.876;2024-01-30T00:16:51;8.07;;;6.20;;
73113;SDS011;61301;51.956;5.876;2024-01-30T00:19:17;11.38;;;6.25;;
73113;SDS011;61301;51.956;5.876;2024-01-30T00:21:43;8.63;;;5.93;;
73113;SDS011;61301;51.956;5.876;2024-01-30T00:24:09;10.52;;;6.50;;
73113;SDS011;61301;51.956;5.876;2024-01-30T00:26:35;7.30;;;5.63;;
73113;SDS011;61301;51.956;5.876;2024-01-30T00:29:01;8.73;;;5.63;;
73113;SDS011;61301;51.956;5.876;2024-01-30T00:31:28;8.75;;;5.93;;
73113;SDS011;61301;51.956;5.876;2024-01-30T00:33:54;5.90;;;5.28;;
73113;SDS011;61301;51.956;5.876;2024-01-30T00:36:20;9.00;;;6.80;;
73113;SDS011;61301;51.956;5.876;2024-01-30T00:38:46;8.48;;;7.10;;
73113;SDS011;61301;51.956;5.876;2024-01-30T00:41:12;9.57;;;6.35;;
73113;SDS011;61301;51.956;5.876;2024-01-30T00:43:38;8.45;;;6.78;;
73113;SDS011;61301;51.956;5.876;2024-01-30T00:46:04;12.93;;;7.13;;
73113;SDS011;61301;51.956;5.876;2024-01-30T00:48:30;9.13;;;6.50;;
73113;SDS011;61301;51.956;5.876;2024-01-30T00:50:56;9.40;;;7.38;;
73113;SDS011;61301;51.956;5.876;2024-01-30T00:53:22;9.30;;;7.70;;
73113;SDS011;61301;51.956;5.876;2024-01-30T00:55:48;9.02;;;7.00;;
73113;SDS011;61301;51.956;5.876;2024-01-30T00:58:14;8.55;;;6.43;;
73113;SDS011;61301;51.956;5.876;2024-01-30T01:00:40;8.13;;;6.10;;
73113;SDS011;61301;51.956;5.876;2024-01-30T01:03:06;7.68;;;6.05;;
73113;SDS011;61301;51.956;5.876;2024-01-30T01:05:32;9.15;;;7.00;;
73113;SDS011;61301;51.956;5.876;2024-01-30T01:07:58;8.65;;;6.63;;
73113;SDS011;61301;51.956;5.876;2024-01-30T01:10:24;9.52;;;6.93;;
73113;SDS011;61301;51.956;5.876;2024-01-30T01:12:50;10.73;;;7.50;;
73113;SDS011;61301;51.956;5.876;2024-01-30T01:15:16;11.45;;;6.90;;
73113;SDS011;61301;51.956;5.876;2024-01-30T01:17:42;9.38;;;6.30;;
73113;SDS011;61301;51.956;5.876;2024-01-30T01:20:08;9.18;;;6.28;;
73113;SDS011;61301;51.956;5.876;2024-01-30T01:22:36;9.73;;;5.97;;
73113;SDS011;61301;51.956;5.876;2024-01-30T01:25:04;9.60;;;6.82;;
73113;SDS011;61301;51.956;5.876;2024-01-30T01:27:32;8.15;;;6.35;;
73113;SDS011;61301;51.956;5.876;2024-01-30T01:30:00;8.38;;;6.40;;
73113;SDS011;61301;51.956;5.876;2024-01-30T01:32:26;8.55;;;6.65;;
73113;SDS011;61301;51.956;5.876;2024-01-30T01:34:52;7.18;;;5.82;;
73113;SDS011;61301;51.956;5.876;2024-01-30T01:37:19;8.13;;;6.53;;
73113;SDS011;61301;51.956;5.876;2024-01-30T01:39:47;8.23;;;6.50;;
73113;SDS011;61301;51.956;5.876;2024-01-30T01:42:13;11.73;;;6.68;;
73113;SDS011;61301;51.956;5.876;2024-01-30T01:44:39;10.40;;;7.07;;
73113;SDS011;61301;51.956;5.876;2024-01-30T01:47:05;9.15;;;6.03;;
73113;SDS011;61301;51.956;5.876;2024-01-30T01:49:31;7.60;;;6.25;;
73113;SDS011;61301;51.956;5.876;2024-01-30T01:51:57;8.85;;;6.70;;
73113;SDS011;61301;51.956;5.876;2024-01-30T01:54:24;10.25;;;7.15;;
73113;SDS011;61301;51.956;5.876;2024-01-30T01:56:52;11.32;;;7.95;;
73113;SDS011;61301;51.956;5.876;2024-01-30T01:59:18;10.00;;;6.82;;
73113;SDS011;61301;51.956;5.876;2024-01-30T02:01:46;10.20;;;6.78;;
73113;SDS011;61301;51.956;5.876;2024-01-30T02:04:15;8.85;;;6.50;;
73113;SDS011;61301;51.956;5.876;2024-01-30T02:06:42;9.40;;;7.03;;
73113;SDS011;61301;51.956;5.876;2024-01-30T02:09:09;9.40;;;7.22;;
73113;SDS011;61301;51.956;5.876;2024-01-30T02:11:35;11.77;;;7.43;;
73113;SDS011;61301;51.956;5.876;2024-01-30T02:14:03;12.65;;;6.88;;
73113;SDS011;61301;51.956;5.876;2024-01-30T02:16:30;8.63;;;6.78;;
73113;SDS011;61301;51.956;5.876;2024-01-30T02:18:56;10.88;;;6.13;;
73113;SDS011;61301;51.956;5.876;2024-01-30T02:21:22;8.95;;;7.32;;
73113;SDS011;61301;51.956;5.876;2024-01-30T02:23:48;8.95;;;6.50;;
73113;SDS011;61301;51.956;5.876;2024-01-30T02:26:16;9.50;;;6.80;;
73113;SDS011;61301;51.956;5.876;2024-01-30T02:28:42;9.48;;;6.85;;
73113;SDS011;61301;51.956;5.876;2024-01-30T02:31:08;10.02;;;6.30;;
73113;SDS011;61301;51.956;5.876;2024-01-30T02:33:34;11.25;;;7.25;;
73113;SDS011;61301;51.956;5.876;2024-01-30T02:36:00;8.27;;;6.55;;
73113;SDS011;61301;51.956;5.876;2024-01-30T02:38:26;9.57;;;5.40;;
73113;SDS011;61301;51.956;5.876;2024-01-30T02:40:52;8.23;;;6.55;;
73113;SDS011;61301;51.956;5.876;2024-01-30T02:43:18;8.95;;;6.20;;
73113;SDS011;61301;51.956;5.876;2024-01-30T02:45:44;6.70;;;5.85;;
73113;SDS011;61301;51.956;5.876;2024-01-30T02:48:10;6.28;;;5.30;;
73113;SDS011;61301;51.956;5.876;2024-01-30T02:50:36;7.10;;;5.28;;
73113;SDS011;61301;51.956;5.876;2024-01-30T02:53:02;7.80;;;5.50;;
73113;SDS011;61301;51.956;5.876;2024-01-30T02:55:29;5.80;;;4.40;;
73113;SDS011;61301;51.956;5.876;2024-01-30T02:57:55;5.05;;;3.60;;
73113;SDS011;61301;51.956;5.876;2024-01-30T03:00:21;4.50;;;3.75;;
73113;SDS011;61301;51.956;5.876;2024-01-30T03:02:47;3.58;;;3.10;;
73113;SDS011;61301;51.956;5.876;2024-01-30T03:05:13;5.63;;;3.50;;
73113;SDS011;61301;51.956;5.876;2024-01-30T03:07:39;4.70;;;3.58;;
73113;SDS011;61301;51.956;5.876;2024-01-30T03:10:05;4.50;;;3.08;;
73113;SDS011;61301;51.956;5.876;2024-01-30T03:12:32;4.05;;;3.40;;
73113;SDS011;61301;51.956;5.876;2024-01-30T03:14:58;6.03;;;4.40;;
73113;SDS011;61301;51.956;5.876;2024-01-30T03:17:24;4.75;;;3.30;;
73113;SDS011;61301;51.956;5.876;2024-01-30T03:19:50;6.35;;;3.90;;
73113;SDS011;61301;51.956;5.876;2024-01-30T03:22:16;3.92;;;3.40;;
73113;SDS011;61301;51.956;5.876;2024-01-30T03:24:43;3.38;;;2.45;;
73113;SDS011;61301;51.956;5.876;2024-01-30T03:27:09;2.85;;;1.92;;
73113;SDS011;61301;51.956;5.876;2024-01-30T03:29:35;3.13;;;1.92;;
73113;SDS011;61301;51.956;5.876;2024-01-30T03:32:01;2.80;;;2.15;;
73113;SDS011;61301;51.956;5.876;2024-01-30T03:34:27;3.47;;;2.85;;
73113;SDS011;61301;51.956;5.876;2024-01-30T03:36:53;4.32;;;3.00;;
73113;SDS011;61301;51.956;5.876;2024-01-30T03:39:19;2.88;;;2.13;;
73113;SDS011;61301;51.956;5.876;2024-01-30T03:41:45;3.53;;;2.13;;
73113;SDS011;61301;51.956;5.876;2024-01-30T03:44:11;2.35;;;2.00;;
73113;SDS011;61301;51.956;5.876;2024-01-30T03:46:37;2.22;;;2.03;;
73113;SDS011;61301;51.956;5.876;2024-01-30T03:49:03;3.97;;;2.95;;
73113;SDS011;61301;51.956;5.876;2024-01-30T03:51:29;5.47;;;3.63;;
73113;SDS011;61301;51.956;5.876;2024-01-30T03:53:55;5.53;;;4.60;;
73113;SDS011;61301;51.956;5.876;2024-01-30T03:56:21;4.95;;;4.15;;
73113;SDS011;61301;51.956;5.876;2024-01-30T03:58:47;4.18;;;3.05;;
73113;SDS011;61301;51.956;5.876;2024-01-30T04:01:14;2.95;;;2.60;;
73113;SDS011;61301;51.956;5.876;2024-01-30T04:03:40;3.67;;;3.00;;
73113;SDS011;61301;51.956;5.876;2024-01-30T04:06:07;4.22;;;2.60;;
73113;SDS011;61301;51.956;5.876;2024-01-30T04:08:33;3.13;;;2.42;;
73113;SDS011;61301;51.956;5.876;2024-01-30T04:11:06;2.47;;;1.98;;
73113;SDS011;61301;51.956;5.876;2024-01-30T04:13:33;2.65;;;1.67;;
73113;SDS011;61301;51.956;5.876;2024-01-30T04:15:59;3.60;;;2.60;;
73113;SDS011;61301;51.956;5.876;2024-01-30T04:18:28;3.30;;;2.80;;
73113;SDS011;61301;51.956;5.876;2024-01-30T04:20:55;4.60;;;3.15;;
73113;SDS011;61301;51.956;5.876;2024-01-30T04:23:21;2.97;;;2.53;;
73113;SDS011;61301;51.956;5.876;2024-01-30T04:25:47;2.83;;;2.53;;
73113;SDS011;61301;51.956;5.876;2024-01-30T04:28:13;3.42;;;2.70;;
73113;SDS011;61301;51.956;5.876;2024-01-30T04:30:42;6.45;;;3.70;;
73113;SDS011;61301;51.956;5.876;2024-01-30T04:33:08;4.95;;;3.90;;
73113;SDS011;61301;51.956;5.876;2024-01-30T04:35:34;7.00;;;4.88;;
73113;SDS011;61301;51.956;5.876;2024-01-30T04:38:01;7.18;;;5.30;;
73113;SDS011;61301;51.956;5.876;2024-01-30T04:40:27;7.13;;;5.13;;
73113;SDS011;61301;51.956;5.876;2024-01-30T04:42:53;7.25;;;5.15;;
73113;SDS011;61301;51.956;5.876;2024-01-30T04:45:19;9.82;;;6.43;;
73113;SDS011;61301;51.956;5.876;2024-01-30T04:47:45;7.80;;;5.53;;
73113;SDS011;61301;51.956;5.876;2024-01-30T04:50:11;6.85;;;5.53;;
73113;SDS011;61301;51.956;5.876;2024-01-30T04:52:37;12.32;;;8.50;;
73113;SDS011;61301;51.956;5.876;2024-01-30T04:55:03;9.10;;;6.97;;
73113;SDS011;61301;51.956;5.876;2024-01-30T04:57:30;10.40;;;7.20;;
73113;SDS011;61301;51.956;5.876;2024-01-30T04:59:57;9.13;;;6.95;;
73113;SDS011;61301;51.956;5.876;2024-01-30T05:02:23;9.18;;;7.15;;
73113;SDS011;61301;51.956;5.876;2024-01-30T05:04:49;8.98;;;6.45;;
73113;SDS011;61301;51.956;5.876;2024-01-30T05:07:15;10.80;;;6.72;;
73113;SDS011;61301;51.956;5.876;2024-01-30T05:09:41;9.43;;;7.07;;
73113;SDS011;61301;51.956;5.876;2024-01-30T05:12:07;12.05;;;7.45;;
73113;SDS011;61301;51.956;5.876;2024-01-30T05:14:33;11.00;;;6.70;;
73113;SDS011;61301;51.956;5.876;2024-01-30T05:16:59;8.98;;;6.45;;
73113;SDS011;61301;51.956;5.876;2024-01-30T05:19:25;9.23;;;6.35;;
73113;SDS011;61301;51.956;5.876;2024-01-30T05:21:51;8.77;;;6.28;;
73113;SDS011;61301;51.956;5.876;2024-01-30T05:24:17;9.05;;;5.50;;
73113;SDS011;61301;51.956;5.876;2024-01-30T05:26:44;7.70;;;6.35;;
73113;SDS011;61301;51.956;5.876;2024-01-30T05:29:10;8.55;;;7.15;;
73113;SDS011;61301;51.956;5.876;2024-01-30T05:31:36;9.15;;;6.40;;
73113;SDS011;61301;51.956;5.876;2024-01-30T05:34:02;8.40;;;6.38;;
73113;SDS011;61301;51.956;5.876;2024-01-30T05:36:28;7.75;;;6.25;;
73113;SDS011;61301;51.956;5.876;2024-01-30T05:38:54;12.70;;;6.90;;
73113;SDS011;61301;51.956;5.876;2024-01-30T05:41:21;7.80;;;5.32;;
73113;SDS011;61301;51.956;5.876;2024-01-30T05:43:47;9.63;;;7.10;;
73113;SDS011;61301;51.956;5.876;2024-01-30T05:46:13;10.98;;;7.75;;
73113;SDS011;61301;51.956;5.876;2024-01-30T05:48:39;10.02;;;7.13;;
73113;SDS011;61301;51.956;5.876;2024-01-30T05:51:06;11.07;;;6.20;;
73113;SDS011;61301;51.956;5.876;2024-01-30T05:53:33;9.55;;;6.57;;
73113;SDS011;61301;51.956;5.876;2024-01-30T05:56:00;9.00;;;6.38;;
73113;SDS011;61301;51.956;5.876;2024-01-30T05:58:27;9.45;;;6.90;;
73113;SDS011;61301;51.956;5.876;2024-01-30T06:00:53;7.72;;;5.95;;
73113;SDS011;61301;51.956;5.876;2024-01-30T06:03:19;7.22;;;5.90;;
73113;SDS011;61301;51.956;5.876;2024-01-30T06:05:46;12.98;;;6.65;;
73113;SDS011;61301;51.956;5.876;2024-01-30T06:08:12;16.17;;;7.63;;
73113;SDS011;61301;51.956;5.876;2024-01-30T06:10:38;9.30;;;6.40;;
73113;SDS011;61301;51.956;5.876;2024-01-30T06:13:05;6.93;;;5.53;;
73113;SDS011;61301;51.956;5.876;2024-01-30T06:15:30;7.15;;;5.47;;
73113;SDS011;61301;51.956;5.876;2024-01-30T06:17:58;8.27;;;5.05;;
73113;SDS011;61301;51.956;5.876;2024-01-30T06:20:24;8.60;;;5.25;;
73113;SDS011;61301;51.956;5.876;2024-01-30T06:22:50;6.85;;;5.63;;
73113;SDS011;61301;51.956;5.876;2024-01-30T06:25:16;7.32;;;5.38;;
73113;SDS011;61301;51.956;5.876;2024-01-30T06:27:43;9.52;;;6.47;;
73113;SDS011;61301;51.956;5.876;2024-01-30T06:30:09;9.02;;;6.35;;
73113;SDS011;61301;51.956;5.876;2024-01-30T06:32:35;8.20;;;6.10;;
73113;SDS011;61301;51.956;5.876;2024-01-30T06:35:01;8.45;;;5.80;;
73113;SDS011;61301;51.956;5.876;2024-01-30T06:37:28;11.05;;;6.13;;
73113;SDS011;61301;51.956;5.876;2024-01-30T06:39:54;9.25;;;6.65;;
73113;SDS011;61301;51.956;5.876;2024-01-30T06:42:20;6.32;;;5.13;;
73113;SDS011;61301;51.956;5.876;2024-01-30T06:44:46;7.03;;;4.43;;
73113;SDS011;61301;51.956;5.876;2024-01-30T06:47:12;5.95;;;4.00;;
73113;SDS011;61301;51.956;5.876;2024-01-30T06:49:38;4.55;;;3.58;;
73113;SDS011;61301;51.956;5.876;2024-01-30T06:52:07;6.32;;;4.90;;
73113;SDS011;61301;51.956;5.876;2024-01-30T06:54:34;5.70;;;4.28;;
73113;SDS011;61301;51.956;5.876;2024-01-30T06:57:00;5.88;;;3.88;;
73113;SDS011;61301;51.956;5.876;2024-01-30T06:59:26;7.30;;;4.47;;
73113;SDS011;61301;51.956;5.876;2024-01-30T07:01:52;8.30;;;5.18;;
73113;SDS011;61301;51.956;5.876;2024-01-30T07:04:18;6.43;;;4.55;;
73113;SDS011;61301;51.956;5.876;2024-01-30T07:06:44;7.10;;;5.38;;
73113;SDS011;61301;51.956;5.876;2024-01-30T07:09:10;8.52;;;5.40;;
73113;SDS011;61301;51.956;5.876;2024-01-30T07:11:36;8.98;;;5.65;;
73113;SDS011;61301;51.956;5.876;2024-01-30T07:14:02;8.45;;;6.03;;
73113;SDS011;61301;51.956;5.876;2024-01-30T07:16:31;8.82;;;5.72;;
73113;SDS011;61301;51.956;5.876;2024-01-30T07:18:57;9.57;;;6.68;;
73113;SDS011;61301;51.956;5.876;2024-01-30T07:21:23;6.95;;;5.22;;
73113;SDS011;61301;51.956;5.876;2024-01-30T07:23:54;8.00;;;5.93;;
73113;SDS011;61301;51.956;5.876;2024-01-30T07:26:20;11.35;;;6.30;;
73113;SDS011;61301;51.956;5.876;2024-01-30T07:28:46;7.45;;;5.90;;
73113;SDS011;61301;51.956;5.876;2024-01-30T07:31:12;9.45;;;5.75;;
73113;SDS011;61301;51.956;5.876;2024-01-30T07:33:38;8.77;;;5.85;;
73113;SDS011;61301;51.956;5.876;2024-01-30T07:36:05;11.30;;;5.88;;
73113;SDS011;61301;51.956;5.876;2024-01-30T07:38:31;8.52;;;5.80;;
73113;SDS011;61301;51.956;5.876;2024-01-30T07:40:58;6.95;;;4.93;;
73113;SDS011;61301;51.956;5.876;2024-01-30T07:43:24;8.85;;;5.28;;
73113;SDS011;61301;51.956;5.876;2024-01-30T07:45:50;11.93;;;6.22;;
73113;SDS011;61301;51.956;5.876;2024-01-30T07:48:16;8.73;;;6.15;;
73113;SDS011;61301;51.956;5.876;2024-01-30T07:50:42;6.10;;;5.38;;
73113;SDS011;61301;51.956;5.876;2024-01-30T07:53:08;8.38;;;5.18;;
73113;SDS011;61301;51.956;5.876;2024-01-30T07:55:34;6.72;;;5.90;;
73113;SDS011;61301;51.956;5.876;2024-01-30T07:58:00;10.07;;;6.07;;
73113;SDS011;61301;51.956;5.876;2024-01-30T08:00:27;8.63;;;6.40;;
73113;SDS011;61301;51.956;5.876;2024-01-30T08:02:54;7.57;;;5.50;;
73113;SDS011;61301;51.956;5.876;2024-01-30T08:05:21;8.98;;;6.32;;
73113;SDS011;61301;51.956;5.876;2024-01-30T08:07:50;9.57;;;5.97;;
73113;SDS011;61301;51.956;5.876;2024-01-30T08:10:16;11.77;;;5.93;;
73113;SDS011;61301;51.956;5.876;2024-01-30T08:12:44;6.53;;;5.30;;
73113;SDS011;61301;51.956;5.876;2024-01-30T08:15:11;10.65;;;5.70;;
73113;SDS011;61301;51.956;5.876;2024-01-30T08:17:38;8.13;;;5.90;;
73113;SDS011;61301;51.956;5.876;2024-01-30T08:20:04;10.40;;;6.28;;
73113;SDS011;61301;51.956;5.876;2024-01-30T08:22:30;7.75;;;6.00;;
73113;SDS011;61301;51.956;5.876;2024-01-30T08:24:56;8.93;;;5.93;;
73113;SDS011;61301;51.956;5.876;2024-01-30T08:27:22;11.05;;;6.85;;
73113;SDS011;61301;51.956;5.876;2024-01-30T08:29:48;10.88;;;6.30;;
73113;SDS011;61301;51.956;5.876;2024-01-30T08:32:15;7.13;;;5.78;;
73113;SDS011;61301;51.956;5.876;2024-01-30T08:34:41;10.20;;;6.32;;
73113;SDS011;61301;51.956;5.876;2024-01-30T08:37:08;11.43;;;7.50;;
73113;SDS011;61301;51.956;5.876;2024-01-30T08:39:34;7.50;;;5.80;;
73113;SDS011;61301;51.956;5.876;2024-01-30T08:42:00;7.95;;;6.43;;
73113;SDS011;61301;51.956;5.876;2024-01-30T08:44:26;8.40;;;5.93;;
73113;SDS011;61301;51.956;5.876;2024-01-30T08:46:53;12.80;;;6.05;;
73113;SDS011;61301;51.956;5.876;2024-01-30T08:49:19;7.28;;;5.80;;
73113;SDS011;61301;51.956;5.876;2024-01-30T08:51:46;8.73;;;6.07;;
73113;SDS011;61301;51.956;5.876;2024-01-30T08:54:12;12.00;;;6.38;;
73113;SDS011;61301;51.956;5.876;2024-01-30T08:56:38;9.68;;;5.93;;
73113;SDS011;61301;51.956;5.876;2024-01-30T08:59:04;10.00;;;5.88;;
73113;SDS011;61301;51.956;5.876;2024-01-30T09:01:30;7.15;;;5.82;;
73113;SDS011;61301;51.956;5.876;2024-01-30T09:03:56;7.78;;;6.53;;
73113;SDS011;61301;51.956;5.876;2024-01-30T09:06:22;7.78;;;6.32;;
73113;SDS011;61301;51.956;5.876;2024-01-30T09:08:50;8.77;;;6.45;;
73113;SDS011;61301;51.956;5.876;2024-01-30T09:11:16;8.27;;;6.30;;
73113;SDS011;61301;51.956;5.876;2024-01-30T09:13:42;10.15;;;6.07;;
73113;SDS011;61301;51.956;5.876;2024-01-30T09:16:09;9.52;;;6.40;;
73113;SDS011;61301;51.956;5.876;2024-01-30T09:18:35;6.97;;;5.70;;
73113;SDS011;61301;51.956;5.876;2024-01-30T09:21:01;9.73;;;6.40;;
73113;SDS011;61301;51.956;5.876;2024-01-30T09:23:27;7.90;;;6.43;;
73113;SDS011;61301;51.956;5.876;2024-01-30T09:25:53;10.57;;;7.22;;
73113;SDS011;61301;51.956;5.876;2024-01-30T09:28:19;8.13;;;6.40;;
73113;SDS011;61301;51.956;5.876;2024-01-30T09:30:45;9.35;;;6.30;;
73113;SDS011;61301;51.956;5.876;2024-01-30T09:33:11;8.70;;;6.30;;
73113;SDS011;61301;51.956;5.876;2024-01-30T09:35:37;10.80;;;7.25;;
73113;SDS011;61301;51.956;5.876;2024-01-30T09:38:03;9.82;;;6.72;;
73113;SDS011;61301;51.956;5.876;2024-01-30T09:40:29;9.02;;;6.43;;
73113;SDS011;61301;51.956;5.876;2024-01-30T09:42:55;7.65;;;6.47;;
73113;SDS011;61301;51.956;5.876;2024-01-30T09:45:25;9.95;;;6.47;;
73113;SDS011;61301;51.956;5.876;2024-01-30T09:47:52;9.23;;;6.47;;
73113;SDS011;61301;51.956;5.876;2024-01-30T09:50:19;11.05;;;6.93;;
73113;SDS011;61301;51.956;5.876;2024-01-30T09:52:46;11.68;;;7.32;;
73113;SDS011;61301;51.956;5.876;2024-01-30T09:55:13;10.10;;;7.10;;
73113;SDS011;61301;51.956;5.876;2024-01-30T09:57:39;10.73;;;6.55;;
73113;SDS011;61301;51.956;5.876;2024-01-30T10:00:07;10.57;;;7.07;;
73113;SDS011;61301;51.956;5.876;2024-01-30T10:02:40;9.70;;;6.95;;
73113;SDS011;61301;51.956;5.876;2024-01-30T10:05:07;9.93;;;6.28;;
73113;SDS011;61301;51.956;5.876;2024-01-30T10:07:33;10.52;;;6.28;;
73113;SDS011;61301;51.956;5.876;2024-01-30T10:10:00;10.80;;;7.10;;
73113;SDS011;61301;51.956;5.876;2024-01-30T10:12:26;10.82;;;6.90;;
73113;SDS011;61301;51.956;5.876;2024-01-30T10:14:52;9.75;;;6.95;;
73113;SDS011;61301;51.956;5.876;2024-01-30T10:17:19;10.13;;;7.25;;
73113;SDS011;61301;51.956;5.876;2024-01-30T10:19:46;10.88;;;6.97;;
73113;SDS011;61301;51.956;5.876;2024-01-30T10:22:12;10.45;;;7.00;;
73113;SDS011;61301;51.956;5.876;2024-01-30T10:24:39;9.05;;;6.85;;
73113;SDS011;61301;51.956;5.876;2024-01-30T10:27:05;10.25;;;7.30;;
73113;SDS011;61301;51.956;5.876;2024-01-30T10:29:31;14.15;;;7.10;;
73113;SDS011;61301;51.956;5.876;2024-01-30T10:32:01;12.10;;;7.00;;
73113;SDS011;61301;51.956;5.876;2024-01-30T10:34:27;8.93;;;7.43;;
73113;SDS011;61301;51.956;5.876;2024-01-30T10:36:58;12.20;;;6.93;;
73113;SDS011;61301;51.956;5.876;2024-01-30T10:39:44;11.18;;;6.75;;
73113;SDS011;61301;51.956;5.876;2024-01-30T10:42:12;13.05;;;6.90;;
73113;SDS011;61301;51.956;5.876;2024-01-30T10:44:43;9.45;;;7.35;;
73113;SDS011;61301;51.956;5.876;2024-01-30T10:47:25;9.85;;;7.00;;
73113;SDS011;61301;51.956;5.876;2024-01-30T10:49:53;12.77;;;7.40;;
73113;SDS011;61301;51.956;5.876;2024-01-30T10:52:20;11.05;;;7.18;;
73113;SDS011;61301;51.956;5.876;2024-01-30T10:54:49;11.18;;;7.22;;
73113;SDS011;61301;51.956;5.876;2024-01-30T10:57:16;9.38;;;6.60;;
73113;SDS011;61301;51.956;5.876;2024-01-30T10:59:43;7.90;;;6.13;;
73113;SDS011;61301;51.956;5.876;2024-01-30T11:02:09;11.98;;;6.78;;
73113;SDS011;61301;51.956;5.876;2024-01-30T11:04:37;13.63;;;6.85;;
73113;SDS011;61301;51.956;5.876;2024-01-30T11:07:23;12.15;;;7.88;;
73113;SDS011;61301;51.956;5.876;2024-01-30T11:12:24;13.52;;;7.55;;
73113;SDS011;61301;51.956;5.876;2024-01-30T11:20:16;12.23;;;7.38;;
73113;SDS011;61301;51.956;5.876;2024-01-30T11:22:46;12.98;;;6.90;;
73113;SDS011;61301;51.956;5.876;2024-01-30T11:25:14;12.90;;;7.32;;
73113;SDS011;61301;51.956;5.876;2024-01-30T11:27:41;13.65;;;7.13;;
73113;SDS011;61301;51.956;5.876;2024-01-30T11:30:08;9.93;;;6.28;;
73113;SDS011;61301;51.956;5.876;2024-01-30T11:32:35;12.20;;;6.45;;
73113;SDS011;61301;51.956;5.876;2024-01-30T11:35:04;8.95;;;6.40;;
73113;SDS011;61301;51.956;5.876;2024-01-30T11:37:36;10.63;;;6.72;;
73113;SDS011;61301;51.956;5.876;2024-01-30T11:40:06;10.57;;;6.57;;
73113;SDS011;61301;51.956;5.876;2024-01-30T11:42:34;10.65;;;6.95;;
73113;SDS011;61301;51.956;5.876;2024-01-30T11:45:01;11.82;;;6.70;;
73113;SDS011;61301;51.956;5.876;2024-01-30T11:47:28;10.23;;;6.32;;
73113;SDS011;61301;51.956;5.876;2024-01-30T11:49:55;8.30;;;6.18;;
73113;SDS011;61301;51.956;5.876;2024-01-30T11:52:21;10.85;;;5.93;;
73113;SDS011;61301;51.956;5.876;2024-01-30T11:54:48;7.68;;;5.45;;
73113;SDS011;61301;51.956;5.876;2024-01-30T11:57:14;8.68;;;6.00;;
73113;SDS011;61301;51.956;5.876;2024-01-30T11:59:40;7.15;;;5.63;;
73113;SDS011;61301;51.956;5.876;2024-01-30T12:02:06;9.02;;;6.15;;
73113;SDS011;61301;51.956;5.876;2024-01-30T12:04:32;13.27;;;6.28;;
73113;SDS011;61301;51.956;5.876;2024-01-30T12:06:58;10.27;;;6.57;;
73113;SDS011;61301;51.956;5.876;2024-01-30T12:09:24;10.10;;;6.40;;
73113;SDS011;61301;51.956;5.876;2024-01-30T12:11:50;7.75;;;6.00;;
73113;SDS011;61301;51.956;5.876;2024-01-30T12:14:16;11.68;;;6.43;;
73113;SDS011;61301;51.956;5.876;2024-01-30T12:16:43;8.00;;;6.22;;
73113;SDS011;61301;51.956;5.876;2024-01-30T12:19:09;11.50;;;7.07;;
73113;SDS011;61301;51.956;5.876;2024-01-30T12:21:35;13.30;;;7.90;;
73113;SDS011;61301;51.956;5.876;2024-01-30T12:24:01;12.65;;;7.20;;
73113;SDS011;61301;51.956;5.876;2024-01-30T12:26:28;11.88;;;6.35;;
73113;SDS011;61301;51.956;5.876;2024-01-30T12:28:54;11.75;;;6.25;;
73113;SDS011;61301;51.956;5.876;2024-01-30T12:31:27;7.43;;;5.28;;
73113;SDS011;61301;51.956;5.876;2024-01-30T12:33:54;8.95;;;5.03;;
73113;SDS011;61301;51.956;5.876;2024-01-30T12:36:21;8.48;;;4.45;;
73113;SDS011;61301;51.956;5.876;2024-01-30T12:38:47;10.32;;;5.22;;
73113;SDS011;61301;51.956;5.876;2024-01-30T12:41:14;6.03;;;4.47;;
73113;SDS011;61301;51.956;5.876;2024-01-30T12:43:40;10.40;;;4.45;;
73113;SDS011;61301;51.956;5.876;2024-01-30T12:46:06;7.53;;;3.00;;
73113;SDS011;61301;51.956;5.876;2024-01-30T12:48:32;7.88;;;2.75;;
73113;SDS011;61301;51.956;5.876;2024-01-30T12:50:58;4.15;;;2.35;;
73113;SDS011;61301;51.956;5.876;2024-01-30T12:53:25;4.90;;;2.50;;
73113;SDS011;61301;51.956;5.876;2024-01-30T12:55:51;5.28;;;2.42;;
73113;SDS011;61301;51.956;5.876;2024-01-30T12:58:17;5.78;;;2.30;;
73113;SDS011;61301;51.956;5.876;2024-01-30T13:00:43;5.68;;;2.50;;
73113;SDS011;61301;51.956;5.876;2024-01-30T13:03:10;7.95;;;2.50;;
73113;SDS011;61301;51.956;5.876;2024-01-30T13:05:37;4.55;;;1.85;;
73113;SDS011;61301;51.956;5.876;2024-01-30T13:08:03;2.95;;;1.45;;
73113;SDS011;61301;51.956;5.876;2024-01-30T13:10:29;8.05;;;1.60;;
73113;SDS011;61301;51.956;5.876;2024-01-30T13:12:55;7.95;;;1.55;;
73113;SDS011;61301;51.956;5.876;2024-01-30T13:15:21;8.43;;;1.13;;
73113;SDS011;61301;51.956;5.876;2024-01-30T13:17:48;6.70;;;1.98;;
73113;SDS011;61301;51.956;5.876;2024-01-30T13:20:15;2.40;;;1.35;;
73113;SDS011;61301;51.956;5.876;2024-01-30T13:22:47;4.25;;;1.80;;
73113;SDS011;61301;51.956;5.876;2024-01-30T13:25:14;2.72;;;1.00;;
73113;SDS011;61301;51.956;5.876;2024-01-30T13:27:40;3.03;;;1.27;;
73113;SDS011;61301;51.956;5.876;2024-01-30T13:30:07;4.38;;;0.77;;
73113;SDS011;61301;51.956;5.876;2024-01-30T13:32:36;3.28;;;0.75;;
73113;SDS011;61301;51.956;5.876;2024-01-30T13:35:03;1.73;;;0.70;;
73113;SDS011;61301;51.956;5.876;2024-01-30T13:37:29;3.28;;;0.63;;
73113;SDS011;61301;51.956;5.876;2024-01-30T13:39:55;2.35;;;0.60;;
73113;SDS011;61301;51.956;5.876;2024-01-30T13:42:22;3.75;;;0.80;;
73113;SDS011;61301;51.956;5.876;2024-01-30T13:44:49;3.20;;;0.95;;
73113;SDS011;61301;51.956;5.876;2024-01-30T13:47:15;2.17;;;0.90;;
73113;SDS011;61301;51.956;5.876;2024-01-30T13:49:41;6.50;;;1.63;;
73113;SDS011;61301;51.956;5.876;2024-01-30T13:52:07;3.88;;;1.50;;
73113;SDS011;61301;51.956;5.876;2024-01-30T13:54:34;6.82;;;1.85;;
73113;SDS011;61301;51.956;5.876;2024-01-30T13:57:00;7.38;;;1.98;;
73113;SDS011;61301;51.956;5.876;2024-01-30T13:59:26;5.88;;;2.70;;
73113;SDS011;61301;51.956;5.876;2024-01-30T14:01:52;7.65;;;2.65;;
73113;SDS011;61301;51.956;5.876;2024-01-30T14:04:18;8.43;;;2.75;;
73113;SDS011;61301;51.956;5.876;2024-01-30T14:06:44;6.05;;;2.40;;
73113;SDS011;61301;51.956;5.876;2024-01-30T14:09:10;8.27;;;3.22;;
73113;SDS011;61301;51.956;5.876;2024-01-30T14:11:36;9.73;;;3.13;;
73113;SDS011;61301;51.956;5.876;2024-01-30T14:14:02;9.52;;;2.60;;
73113;SDS011;61301;51.956;5.876;2024-01-30T14:16:28;11.23;;;4.20;;
73113;SDS011;61301;51.956;5.876;2024-01-30T14:18:54;6.65;;;3.05;;
73113;SDS011;61301;51.956;5.876;2024-01-30T14:21:20;8.75;;;4.38;;
73113;SDS011;61301;51.956;5.876;2024-01-30T14:23:46;9.57;;;3.83;;
73113;SDS011;61301;51.956;5.876;2024-01-30T14:26:12;8.77;;;3.88;;
73113;SDS011;61301;51.956;5.876;2024-01-30T14:28:38;12.13;;;3.90;;
73113;SDS011;61301;51.956;5.876;2024-01-30T14:31:04;6.78;;;3.50;;
73113;SDS011;61301;51.956;5.876;2024-01-30T14:33:31;7.15;;;3.38;;
73113;SDS011;61301;51.956;5.876;2024-01-30T14:35:57;6.18;;;3.00;;
73113;SDS011;61301;51.956;5.876;2024-01-30T14:38:24;6.25;;;2.90;;
73113;SDS011;61301;51.956;5.876;2024-01-30T14:40:50;4.80;;;3.15;;
73113;SDS011;61301;51.956;5.876;2024-01-30T14:43:16;7.13;;;3.75;;
73113;SDS011;61301;51.956;5.876;2024-01-30T14:45:43;6.43;;;3.67;;
73113;SDS011;61301;51.956;5.876;2024-01-30T14:48:11;6.50;;;2.90;;